Time;durP1;ratioP1;P1;durP2;ratioP2;P2;SDS_P1;SDS_P2;PMS_P1;PMS_P2;Temp;Humidity;BMP_temperature;BMP_pressure;BME280_temperature;BME280_humidity;BME280_pressure;Samples;Min_cycle;Max_cycle;Signal;HPM_P1;HPM_P2
2024/01/14 00:02:09;;;;;;;1.05;1.05;;;6.50;99.90;;;;;;5134042;27;20082;-68
2024/01/14 00:04:34;;;;;;;0.20;0.20;;;6.00;99.90;;;;;;5152406;27;20049;-69
2024/01/14 00:07:00;;;;;;;0.20;0.20;;;6.10;99.90;;;;;;5133629;27;20478;-68
2024/01/14 00:09:26;;;;;;;0.20;0.20;;;6.20;99.90;;;;;;5152533;27;20043;-69
2024/01/14 00:11:51;;;;;;;0.22;0.22;;;6.20;99.90;;;;;;5117450;27;20047;-69
2024/01/14 00:14:17;;;;;;;0.20;0.20;;;6.30;99.90;;;;;;5120742;27;20046;-73
2024/01/14 00:16:43;;;;;;;0.40;0.40;;;5.80;99.90;;;;;;5134288;27;20129;-69
2024/01/14 00:19:09;;;;;;;0.90;0.90;;;5.90;99.90;;;;;;5117535;28;20050;-69
2024/01/14 00:21:35;;;;;;;0.20;0.20;;;6.00;99.90;;;;;;5145239;27;20507;-69
2024/01/14 00:24:03;;;;;;;2.60;0.82;;;6.00;99.90;;;;;;5138606;27;20453;-69
2024/01/14 00:26:29;;;;;;;0.30;0.30;;;6.30;99.90;;;;;;5133829;27;20050;-72
2024/01/14 00:28:57;;;;;;;0.20;0.20;;;6.00;99.90;;;;;;5135429;27;20098;-70
2024/01/14 00:31:23;;;;;;;2.10;0.30;;;6.00;99.90;;;;;;5137230;27;20065;-70
2024/01/14 00:33:50;;;;;;;0.75;0.60;;;6.40;99.90;;;;;;5138061;27;20035;-70
2024/01/14 00:36:16;;;;;;;0.20;0.20;;;6.00;99.90;;;;;;5155338;27;20405;-70
2024/01/14 00:38:42;;;;;;;;;;;5.90;99.90;;;;;;5138469;27;20054;-71
2024/01/14 00:41:08;;;;;;;0.77;0.47;;;5.70;99.90;;;;;;5155802;27;19927;-71
2024/01/14 00:43:34;;;;;;;0.68;0.60;;;5.80;99.90;;;;;;5156142;27;20051;-71
2024/01/14 00:46:02;;;;;;;0.32;0.32;;;5.80;99.90;;;;;;5137213;27;20055;-71
2024/01/14 00:48:28;;;;;;;0.20;0.20;;;5.70;99.90;;;;;;5137436;27;20054;-71
2024/01/14 00:50:54;;;;;;;;;;;5.80;99.90;;;;;;5156246;27;20050;-71
2024/01/14 00:53:20;;;;;;;0.55;0.43;;;6.10;99.90;;;;;;5137702;27;19926;-71
2024/01/14 00:55:45;;;;;;;0.60;0.60;;;5.90;99.90;;;;;;5137082;27;20050;-71
2024/01/14 00:58:11;;;;;;;0.95;0.55;;;5.90;99.90;;;;;;5137371;27;20034;-70
2024/01/14 01:00:37;;;;;;;0.20;0.20;;;6.00;99.90;;;;;;5137387;27;20054;-71
2024/01/14 01:03:03;;;;;;;0.20;0.20;;;5.80;99.90;;;;;;5155810;27;20465;-71
2024/01/14 01:05:29;;;;;;;6.97;1.17;;;6.00;99.90;;;;;;5137061;27;20056;-70
2024/01/14 01:07:54;;;;;;;0.38;0.38;;;6.00;99.90;;;;;;5129494;27;20126;-71
2024/01/14 01:10:20;;;;;;;0.73;0.73;;;5.80;99.90;;;;;;5131015;27;20428;-71
2024/01/14 01:12:46;;;;;;;0.35;0.35;;;5.80;99.90;;;;;;5137199;27;20043;-71
2024/01/14 01:15:12;;;;;;;;;;;5.90;99.90;;;;;;5120709;27;20094;-71
2024/01/14 01:17:38;;;;;;;0.52;0.52;;;6.00;99.90;;;;;;5156138;27;19927;-70
2024/01/14 01:20:05;;;;;;;7.38;0.85;;;5.70;99.90;;;;;;5137007;27;20474;-70
2024/01/14 01:22:33;;;;;;;1.65;1.00;;;5.90;99.90;;;;;;5155713;27;20494;-71
2024/01/14 01:24:58;;;;;;;0.30;0.30;;;5.60;99.90;;;;;;5155357;27;20063;-71
2024/01/14 01:27:25;;;;;;;1.35;0.82;;;5.80;99.90;;;;;;5155890;27;20103;-70
2024/01/14 01:29:51;;;;;;;0.20;0.20;;;5.50;99.90;;;;;;5155363;27;20039;-71
2024/01/14 01:32:17;;;;;;;0.22;0.22;;;5.70;99.90;;;;;;5155528;27;20701;-71
2024/01/14 01:34:43;;;;;;;0.82;0.82;;;5.80;99.90;;;;;;5136257;27;20061;-71
2024/01/14 01:37:09;;;;;;;0.20;0.20;;;5.70;99.90;;;;;;5137070;27;20362;-71
2024/01/14 01:39:34;;;;;;;1.60;1.50;;;5.90;99.90;;;;;;5154312;27;20038;-70
2024/01/14 01:42:00;;;;;;;0.65;0.65;;;5.70;99.90;;;;;;5154366;27;20549;-69
2024/01/14 01:44:26;;;;;;;0.75;0.75;;;5.90;99.90;;;;;;5155232;27;20121;-71
2024/01/14 01:46:53;;;;;;;0.20;0.20;;;5.80;99.90;;;;;;5155425;27;20475;-71
2024/01/14 01:49:19;;;;;;;0.20;0.20;;;5.70;99.90;;;;;;5154441;27;20490;-71
2024/01/14 01:51:49;;;;;;;4.88;0.80;;;5.70;99.90;;;;;;5155464;27;20049;-70
2024/01/14 01:54:21;;;;;;;0.45;0.45;;;5.70;99.90;;;;;;5136478;27;20078;-70
2024/01/14 01:56:48;;;;;;;1.02;0.93;;;5.70;99.90;;;;;;5155049;27;20055;-70
2024/01/14 01:59:15;;;;;;;0.20;0.20;;;5.60;99.90;;;;;;5154555;27;20095;-70
2024/01/14 02:01:40;;;;;;;;;;;5.80;99.90;;;;;;5155148;27;20069;-69
2024/01/14 02:04:07;;;;;;;4.25;3.83;;;5.60;99.90;;;;;;5136169;27;19923;-70
2024/01/14 02:06:33;;;;;;;0.40;0.40;;;5.50;99.90;;;;;;5136076;27;20050;-70
2024/01/14 02:08:59;;;;;;;4.38;0.50;;;5.40;99.90;;;;;;5140506;27;20051;-70
2024/01/14 02:11:25;;;;;;;0.40;0.40;;;5.40;99.90;;;;;;5135843;27;20055;-70
2024/01/14 02:13:51;;;;;;;0.10;0.10;;;5.70;99.90;;;;;;5154047;27;20053;-70
2024/01/14 02:16:16;;;;;;;0.10;0.10;;;5.80;99.90;;;;;;5135916;27;20050;-71
2024/01/14 02:18:42;;;;;;;0.20;0.20;;;5.60;99.90;;;;;;5135718;27;20062;-70
2024/01/14 02:21:09;;;;;;;0.20;0.20;;;;;;;;;;5135963;27;20030;-70
2024/01/14 02:23:39;;;;;;;0.20;0.20;;;5.60;99.90;;;;;;5135567;27;20482;-71
2024/01/14 02:26:05;;;;;;;1.52;1.10;;;5.50;99.90;;;;;;5154403;27;20046;-70
2024/01/14 02:28:31;;;;;;;0.20;0.20;;;;;;;;;;5135653;27;20057;-71
2024/01/14 02:30:57;;;;;;;;;;;5.60;99.90;;;;;;5154509;27;20127;-70
2024/01/14 02:33:24;;;;;;;0.20;0.20;;;;;;;;;;5153807;27;19927;-69
2024/01/14 02:35:50;;;;;;;0.32;0.32;;;5.50;99.90;;;;;;5154339;27;20052;-70
2024/01/14 02:38:15;;;;;;;0.20;0.20;;;5.60;99.90;;;;;;5135228;27;20055;-70
2024/01/14 02:40:41;;;;;;;0.30;0.30;;;5.40;99.90;;;;;;5154001;27;20050;-71
2024/01/14 02:43:07;;;;;;;0.38;0.38;;;5.70;99.90;;;;;;5153793;27;20050;-70
2024/01/14 02:45:32;;;;;;;0.50;0.50;;;5.50;99.90;;;;;;5154129;27;20066;-70
2024/01/14 02:47:58;;;;;;;2.42;2.30;;;5.50;99.90;;;;;;5153775;27;20038;-70
2024/01/14 02:50:24;;;;;;;2.47;1.95;;;5.40;99.90;;;;;;5153883;27;20397;-71
2024/01/14 02:52:50;;;;;;;0.45;0.45;;;5.50;99.90;;;;;;5134998;27;20364;-70
2024/01/14 02:55:15;;;;;;;2.35;0.40;;;5.50;99.90;;;;;;5153641;27;20047;-71
2024/01/14 02:57:42;;;;;;;0.20;0.20;;;5.40;99.90;;;;;;5153710;27;20038;-70
2024/01/14 03:00:08;;;;;;;0.30;0.30;;;5.40;99.90;;;;;;5153475;27;20117;-71
2024/01/14 03:02:33;;;;;;;0.20;0.20;;;5.40;99.90;;;;;;5134768;27;20177;-71
2024/01/14 03:04:59;;;;;;;0.20;0.20;;;5.70;99.90;;;;;;5135179;27;20055;-71
2024/01/14 03:07:25;;;;;;;0.10;0.10;;;5.80;99.90;;;;;;5130902;27;20129;-70
2024/01/14 03:09:51;;;;;;;1.10;1.10;;;;;;;;;;5124782;27;20062;-70
2024/01/14 03:12:17;;;;;;;2.25;0.47;;;5.60;99.90;;;;;;5152763;27;20556;-71
2024/01/14 03:14:42;;;;;;;0.30;0.30;;;5.80;99.90;;;;;;5153557;27;20086;-70
2024/01/14 03:17:08;;;;;;;0.25;0.25;;;5.70;99.90;;;;;;5153117;27;20050;-73
2024/01/14 03:19:34;;;;;;;0.28;0.28;;;5.70;99.90;;;;;;5153360;27;20046;-72
2024/01/14 03:22:00;;;;;;;0.20;0.20;;;5.70;99.90;;;;;;5153258;27;20042;-71
2024/01/14 03:24:26;;;;;;;;;;;5.50;99.90;;;;;;5154258;27;20046;-71
2024/01/14 03:26:51;;;;;;;0.20;0.20;;;5.70;99.90;;;;;;5135405;27;20393;-71
2024/01/14 03:29:17;;;;;;;0.45;0.45;;;5.50;99.90;;;;;;5135318;27;20047;-72
2024/01/14 03:31:43;;;;;;;0.20;0.20;;;5.40;99.90;;;;;;5134866;27;20047;-71
2024/01/14 03:34:08;;;;;;;0.20;0.20;;;5.50;99.90;;;;;;5153471;27;20156;-70
2024/01/14 03:36:34;;;;;;;0.30;0.30;;;5.40;99.90;;;;;;5153043;27;20367;-71
2024/01/14 03:39:00;;;;;;;2.15;1.38;;;5.20;99.90;;;;;;5135125;27;20049;-71
2024/01/14 03:41:26;;;;;;;0.20;0.20;;;5.40;99.90;;;;;;5152663;27;20118;-71
2024/01/14 03:43:51;;;;;;;0.20;0.20;;;5.30;99.90;;;;;;5134755;27;20046;-70
2024/01/14 03:46:17;;;;;;;2.47;1.23;;;;;;;;;;5152518;27;20054;-70
2024/01/14 03:48:43;;;;;;;0.20;0.20;;;5.30;99.90;;;;;;5135006;27;20051;-71
2024/01/14 03:51:09;;;;;;;0.63;0.63;;;5.40;99.90;;;;;;5153057;27;20065;-70
2024/01/14 03:53:34;;;;;;;10.70;1.10;;;5.40;99.90;;;;;;5153260;27;20046;-70
2024/01/14 03:56:00;;;;;;;0.20;0.20;;;5.00;99.90;;;;;;5134645;27;20575;-73
2024/01/14 03:58:26;;;;;;;0.20;0.20;;;5.10;99.90;;;;;;5153150;27;20056;-71
2024/01/14 04:00:51;;;;;;;0.20;0.20;;;5.00;99.90;;;;;;5152584;27;20091;-72
2024/01/14 04:03:17;;;;;;;4.70;0.85;;;5.40;99.90;;;;;;5152556;27;20076;-71
2024/01/14 04:05:43;;;;;;;0.20;0.20;;;5.10;99.90;;;;;;5152278;27;20512;-71
2024/01/14 04:08:08;;;;;;;0.20;0.20;;;5.40;99.90;;;;;;5143159;27;20387;-72
2024/01/14 04:10:34;;;;;;;6.20;1.05;;;5.10;99.90;;;;;;5148397;27;20043;-71
2024/01/14 04:13:00;;;;;;;0.20;0.20;;;5.10;99.90;;;;;;5134685;27;20054;-72
2024/01/14 04:15:26;;;;;;;0.20;0.20;;;5.10;99.90;;;;;;5134152;27;20071;-73
2024/01/14 04:17:51;;;;;;;0.30;0.30;;;5.30;99.90;;;;;;5134610;27;20046;-74
2024/01/14 04:20:17;;;;;;;0.20;0.20;;;;;;;;;;5134122;27;20070;-72
2024/01/14 04:22:43;;;;;;;0.65;0.65;;;5.30;99.90;;;;;;5134960;27;20081;-72
2024/01/14 04:25:09;;;;;;;0.45;0.45;;;5.00;99.90;;;;;;5152924;27;20082;-72
2024/01/14 04:27:36;;;;;;;3.30;1.27;;;5.00;99.90;;;;;;5134200;27;20042;-72
2024/01/14 04:30:03;;;;;;;0.20;0.20;;;4.80;99.90;;;;;;5152577;27;20138;-71
2024/01/14 04:32:29;;;;;;;0.82;0.75;;;4.70;99.90;;;;;;5134639;27;20122;-71
2024/01/14 04:34:55;;;;;;;0.40;0.40;;;;;;;;;;5152533;27;20653;-72
2024/01/14 04:37:21;;;;;;;0.57;0.57;;;5.30;99.90;;;;;;5133936;27;20133;-72
2024/01/14 04:39:46;;;;;;;0.20;0.20;;;5.10;99.90;;;;;;5151863;27;20078;-71
2024/01/14 04:42:12;;;;;;;0.20;0.20;;;;;;;;;;5133975;27;20050;-72
2024/01/14 04:44:38;;;;;;;0.20;0.20;;;5.00;99.90;;;;;;5134042;27;20046;-70
2024/01/14 04:47:04;;;;;;;0.20;0.20;;;5.10;99.90;;;;;;5152741;27;20058;-71
2024/01/14 04:49:29;;;;;;;0.20;0.20;;;5.20;99.90;;;;;;5152131;27;20098;-73
2024/01/14 04:51:56;;;;;;;0.32;0.32;;;;;;;;;;5152532;27;20085;-71
2024/01/14 04:54:21;;;;;;;0.20;0.20;;;5.10;99.90;;;;;;5133818;27;20411;-72
2024/01/14 04:56:47;;;;;;;0.30;0.30;;;5.20;99.90;;;;;;5152544;27;20151;-70
2024/01/14 04:59:13;;;;;;;0.20;0.20;;;5.20;99.90;;;;;;5133626;27;20050;-71
2024/01/14 05:01:39;;;;;;;1.27;0.57;;;5.40;99.90;;;;;;5152456;27;20131;-71
2024/01/14 05:04:05;;;;;;;0.20;0.20;;;5.20;99.90;;;;;;5151906;27;20084;-71
2024/01/14 05:06:33;;;;;;;25.95;1.17;;;4.90;99.90;;;;;;5134203;27;20047;-71
2024/01/14 05:08:58;;;;;;;0.30;0.30;;;5.20;99.90;;;;;;5138298;27;20045;-71
2024/01/14 05:11:24;;;;;;;0.38;0.38;;;5.50;99.90;;;;;;5133799;27;20054;-71
2024/01/14 05:13:49;;;;;;;0.80;0.80;;;4.90;99.90;;;;;;5152149;27;20055;-71
2024/01/14 05:16:15;;;;;;;0.20;0.20;;;4.90;99.90;;;;;;5136093;27;20055;-72
2024/01/14 05:18:41;;;;;;;0.20;0.20;;;;;;;;;;5136962;27;20126;-71
2024/01/14 05:21:07;;;;;;;;;;;4.80;99.90;;;;;;5137736;27;20389;-71
2024/01/14 05:23:33;;;;;;;2.10;1.38;;;4.60;99.90;;;;;;5155589;27;19927;-71
2024/01/14 05:26:02;;;;;;;0.20;0.20;;;4.70;99.90;;;;;;5119867;27;20046;-71
2024/01/14 05:28:28;;;;;;;0.20;0.20;;;4.60;99.90;;;;;;5155537;27;20054;-71
2024/01/14 05:30:53;;;;;;;0.20;0.20;;;4.50;99.90;;;;;;5156135;27;20072;-71
2024/01/14 05:33:19;;;;;;;0.20;0.20;;;;;;;;;;5136902;27;20042;-71
2024/01/14 05:35:45;;;;;;;0.20;0.20;;;4.50;99.90;;;;;;5137385;27;20047;-71
2024/01/14 05:38:11;;;;;;;1.27;1.17;;;4.40;99.90;;;;;;5136932;27;20432;-71
2024/01/14 05:40:37;;;;;;;0.20;0.20;;;;;;;;;;5137216;27;20439;-71
2024/01/14 05:43:03;;;;;;;0.30;0.30;;;4.30;99.90;;;;;;5137178;27;20137;-70
2024/01/14 05:45:28;;;;;;;0.20;0.20;;;4.50;99.90;;;;;;5155502;27;20133;-71
2024/01/14 05:47:54;;;;;;;0.20;0.20;;;4.50;99.90;;;;;;5155319;27;20450;-71
2024/01/14 05:50:20;;;;;;;0.20;0.20;;;4.80;99.90;;;;;;5155520;27;20042;-71
2024/01/14 05:52:46;;;;;;;2.35;0.50;;;;;;;;;;5155172;27;20042;-71
2024/01/14 05:55:12;;;;;;;0.20;0.20;;;5.00;99.90;;;;;;5137076;27;20078;-71
2024/01/14 05:57:37;;;;;;;0.20;0.20;;;4.60;99.90;;;;;;5155048;27;20046;-71
2024/01/14 06:00:05;;;;;;;0.20;0.20;;;4.70;99.90;;;;;;5155094;27;20049;-71
2024/01/14 06:02:30;;;;;;;0.20;0.20;;;4.50;99.90;;;;;;5136418;27;20043;-71
2024/01/14 06:04:56;;;;;;;0.20;0.20;;;5.00;99.90;;;;;;5155073;27;20120;-70
2024/01/14 06:07:22;;;;;;;0.20;0.20;;;4.80;99.90;;;;;;5151562;27;20095;-71
2024/01/14 06:09:47;;;;;;;0.20;0.20;;;4.90;99.90;;;;;;5144353;27;20050;-71
2024/01/14 06:12:14;;;;;;;0.20;0.20;;;4.80;99.90;;;;;;5154518;27;20046;-72
2024/01/14 06:14:40;;;;;;;0.20;0.20;;;4.70;99.90;;;;;;5154931;27;20046;-71
2024/01/14 06:17:06;;;;;;;0.30;0.30;;;4.70;99.90;;;;;;5154248;27;20130;-72
2024/01/14 06:19:31;;;;;;;0.20;0.20;;;4.60;99.90;;;;;;5154910;27;20047;-72
2024/01/14 06:21:59;;;;;;;1.35;0.50;;;4.60;99.90;;;;;;5154332;27;20406;-71
2024/01/14 06:24:25;;;;;;;1.90;0.55;;;4.80;99.90;;;;;;5154815;27;20406;-71
2024/01/14 06:26:52;;;;;;;1.08;0.65;;;4.70;99.90;;;;;;5153969;27;20046;-72
2024/01/14 06:29:18;;;;;;;0.30;0.30;;;4.40;99.90;;;;;;5136289;27;20053;-70
2024/01/14 06:31:44;;;;;;;1.23;1.23;;;4.20;99.90;;;;;;5136049;27;20043;-71
2024/01/14 06:34:11;;;;;;;0.20;0.20;;;4.40;99.90;;;;;;5154379;27;20045;-71
2024/01/14 06:36:37;;;;;;;;;;;4.20;99.90;;;;;;5136519;27;20050;-71
2024/01/14 06:39:02;;;;;;;0.20;0.20;;;4.40;99.90;;;;;;5136521;27;19923;-71
2024/01/14 06:41:28;;;;;;;0.35;0.35;;;4.10;99.90;;;;;;5154385;27;20389;-71
2024/01/14 06:43:54;;;;;;;0.20;0.20;;;3.90;99.90;;;;;;5154543;27;20057;-72
2024/01/14 06:46:20;;;;;;;0.73;0.73;;;3.80;99.90;;;;;;5153642;27;20533;-72
2024/01/14 06:48:46;;;;;;;0.30;0.30;;;;;;;;;;5136066;27;20051;-71
2024/01/14 06:51:12;;;;;;;0.28;0.28;;;;;;;;;;5135223;27;20039;-72
2024/01/14 06:53:38;;;;;;;0.20;0.20;;;;;;;;;;5136049;27;20058;-72
2024/01/14 06:56:04;;;;;;;0.30;0.30;;;3.90;99.90;;;;;;5135471;27;20042;-72
2024/01/14 06:58:29;;;;;;;0.30;0.30;;;3.60;99.90;;;;;;5154025;27;20396;-72
2024/01/14 07:00:55;;;;;;;0.20;0.20;;;;;;;;;;5153846;27;20039;-72
2024/01/14 07:03:21;;;;;;;0.10;0.10;;;3.70;99.90;;;;;;5135483;27;20046;-72
2024/01/14 07:05:47;;;;;;;0.20;0.20;;;;;;;;;;5135426;27;20045;-72
2024/01/14 07:08:13;;;;;;;0.20;0.20;;;;;;;;;;5124765;27;20498;-72
2024/01/14 07:10:39;;;;;;;0.25;0.25;;;;;;;;;;5150028;27;20074;-71
2024/01/14 07:13:05;;;;;;;0.30;0.30;;;4.00;99.90;;;;;;5153640;27;20044;-71
2024/01/14 07:15:31;;;;;;;0.25;0.25;;;3.80;99.90;;;;;;5153999;27;20042;-71
2024/01/14 07:17:57;;;;;;;0.20;0.20;;;3.90;99.90;;;;;;5135333;27;20046;-71
2024/01/14 07:20:22;;;;;;;0.20;0.20;;;3.60;99.90;;;;;;5135053;27;20561;-71
2024/01/14 07:22:48;;;;;;;0.70;0.70;;;4.10;99.90;;;;;;5153805;27;20050;-71
2024/01/14 07:25:14;;;;;;;0.52;0.52;;;3.80;99.90;;;;;;5152993;27;20050;-71
2024/01/14 07:27:39;;;;;;;0.20;0.20;;;3.70;99.90;;;;;;5153480;27;20091;-71
2024/01/14 07:30:06;;;;;;;0.20;0.20;;;;;;;;;;5134868;27;20470;-71
2024/01/14 07:32:31;;;;;;;0.20;0.20;;;3.80;99.90;;;;;;5135198;27;20045;-71
2024/01/14 07:34:58;;;;;;;0.20;0.20;;;3.90;99.90;;;;;;5135015;27;20046;-72
2024/01/14 07:37:24;;;;;;;0.30;0.30;;;3.90;99.90;;;;;;5153340;27;20708;-71
2024/01/14 07:39:50;;;;;;;0.20;0.20;;;;;;;;;;5116815;27;20054;-72
2024/01/14 07:42:17;;;;;;;0.20;0.20;;;;;;;;;;5153111;27;20039;-72
2024/01/14 07:44:44;;;;;;;0.30;0.30;;;;;;;;;;5153199;27;20038;-72
2024/01/14 07:47:09;;;;;;;0.20;0.20;;;4.00;99.90;;;;;;5134346;27;20051;-72
2024/01/14 07:49:35;;;;;;;0.20;0.20;;;3.70;99.90;;;;;;5134645;27;20047;-71
2024/01/14 07:52:02;;;;;;;0.52;0.52;;;3.90;99.90;;;;;;5153176;27;20043;-71
2024/01/14 07:54:28;;;;;;;0.32;0.32;;;3.90;99.90;;;;;;5152629;27;20141;-72
2024/01/14 07:56:53;;;;;;;0.20;0.20;;;3.70;99.90;;;;;;5153054;27;20064;-72
2024/01/14 07:59:23;;;;;;;0.20;0.20;;;3.50;99.90;;;;;;5133981;27;20375;-71
2024/01/14 08:01:49;;;;;;;0.30;0.30;;;3.70;99.90;;;;;;5134634;27;20101;-72
2024/01/14 08:04:15;;;;;;;0.45;0.45;;;;;;;;;;5121490;27;20050;-72
2024/01/14 08:06:41;;;;;;;0.80;0.80;;;3.20;99.90;;;;;;5133423;27;20509;-72
2024/01/14 08:09:06;;;;;;;0.40;0.40;;;3.10;99.90;;;;;;5142692;27;20038;-72
2024/01/14 08:11:33;;;;;;;0.20;0.20;;;;;;;;;;5137689;27;20753;-72
2024/01/14 08:13:59;;;;;;;0.17;0.17;;;;;;;;;;5125520;27;20054;-72
2024/01/14 08:16:25;;;;;;;0.28;0.28;;;;;;;;;;5152629;27;20058;-72
2024/01/14 08:18:51;;;;;;;0.20;0.20;;;3.00;99.90;;;;;;5122637;27;20050;-72
2024/01/14 08:21:16;;;;;;;0.20;0.20;;;2.70;99.90;;;;;;5134032;27;20045;-72
2024/01/14 08:23:43;;;;;;;0.30;0.30;;;;;;;;;;5124712;27;20436;-72
2024/01/14 08:26:09;;;;;;;0.30;0.30;;;2.80;99.90;;;;;;5133572;27;20509;-72
2024/01/14 08:28:36;;;;;;;0.40;0.40;;;2.90;99.90;;;;;;5144301;27;20043;-72
2024/01/14 08:31:02;;;;;;;0.20;0.20;;;3.00;99.90;;;;;;5152598;27;20118;-72
2024/01/14 08:33:28;;;;;;;0.22;0.22;;;;;;;;;;5122232;27;20133;-72
2024/01/14 08:35:55;;;;;;;0.20;0.20;;;;;;;;;;5161406;27;20072;-72
2024/01/14 08:38:21;;;;;;;0.30;0.30;;;3.20;99.90;;;;;;5146756;27;20051;-72
2024/01/14 08:40:47;;;;;;;0.40;0.40;;;;;;;;;;5151865;27;20137;-72
2024/01/14 08:43:13;;;;;;;0.70;0.70;;;3.60;99.90;;;;;;5130303;27;20042;-73
2024/01/14 08:45:38;;;;;;;0.82;0.82;;;3.20;99.90;;;;;;5116500;27;20062;-72
2024/01/14 08:48:10;;;;;;;0.55;0.55;;;;;;;;;;5150200;27;20042;-71
2024/01/14 08:50:36;;;;;;;0.30;0.30;;;;;;;;;;5136400;27;20062;-72
2024/01/14 08:53:02;;;;;;;0.20;0.20;;;;;;;;;;5134106;27;20043;-71
2024/01/14 08:55:28;;;;;;;0.20;0.20;;;;;;;;;;5137028;27;20055;-72
2024/01/14 08:57:54;;;;;;;;;;;3.90;99.90;;;;;;5153632;27;20039;-72
2024/01/14 09:00:20;;;;;;;0.20;0.20;;;3.50;99.90;;;;;;5155633;27;20414;-72
2024/01/14 09:02:47;;;;;;;0.28;0.28;;;;;;;;;;5135996;27;20054;-72
2024/01/14 09:05:12;;;;;;;0.20;0.20;;;3.80;99.90;;;;;;5136078;27;20046;-73
2024/01/14 09:07:38;;;;;;;0.52;0.52;;;3.90;99.90;;;;;;5151991;27;20042;-72
2024/01/14 09:10:05;;;;;;;0.30;0.30;;;4.00;99.90;;;;;;5137321;27;20379;-72
2024/01/14 09:12:31;;;;;;;0.20;0.20;;;;;;;;;;5135788;27;20113;-72
2024/01/14 09:14:56;;;;;;;0.40;0.40;;;3.90;99.90;;;;;;5128259;27;20046;-72
2024/01/14 09:17:22;;;;;;;19.42;1.60;;;4.00;99.90;;;;;;5137192;27;21029;-72
2024/01/14 09:19:48;;;;;;;0.20;0.20;;;;;;;;;;5155841;27;20438;-72
2024/01/14 09:22:14;;;;;;;0.55;0.55;;;4.40;99.90;;;;;;5120275;27;20043;-72
2024/01/14 09:24:45;;;;;;;0.20;0.20;;;;;;;;;;5155827;27;20043;-72
2024/01/14 09:27:11;;;;;;;0.40;0.40;;;4.30;99.90;;;;;;5136785;27;20047;-74
2024/01/14 09:29:37;;;;;;;0.50;0.50;;;4.20;99.90;;;;;;5114543;27;20118;-72
2024/01/14 09:32:03;;;;;;;0.60;0.60;;;4.10;99.90;;;;;;5136555;27;20047;-71
2024/01/14 09:34:28;;;;;;;0.63;0.63;;;4.30;99.90;;;;;;5150348;27;20045;-72
2024/01/14 09:36:54;;;;;;;0.20;0.20;;;;;;;;;;5120140;27;20053;-70
2024/01/14 09:39:21;;;;;;;0.30;0.30;;;;;;;;;;5128050;27;20055;-73
2024/01/14 09:41:55;;;;;;;;;;;4.10;99.90;;;;;;5150217;27;20042;-70
2024/01/14 09:44:21;;;;;;;0.30;0.30;;;4.50;99.90;;;;;;5121159;27;19965;-71
2024/01/14 09:46:47;;;;;;;0.20;0.20;;;4.70;99.90;;;;;;5143117;27;20055;-70
2024/01/14 09:49:15;;;;;;;0.77;0.77;;;4.80;99.90;;;;;;5153116;27;20046;-71
2024/01/14 09:51:41;;;;;;;4.38;0.57;;;4.80;99.90;;;;;;5134671;27;20049;-70
2024/01/14 09:54:07;;;;;;;;;;;5.20;99.90;;;;;;5129826;27;20478;-72
2024/01/14 09:56:35;;;;;;;1.95;0.80;;;5.30;99.90;;;;;;5116783;27;19966;-72
2024/01/14 09:59:02;;;;;;;0.47;0.47;;;5.50;99.90;;;;;;5152332;27;20034;-72
2024/01/14 10:01:33;;;;;;;1.55;1.10;;;5.50;99.90;;;;;;5132913;27;20050;-72
2024/01/14 10:04:03;;;;;;;0.57;0.57;;;5.40;99.90;;;;;;5120667;27;20097;-72
2024/01/14 10:06:29;;;;;;;0.20;0.20;;;5.60;99.90;;;;;;5151312;27;20039;-72
2024/01/14 10:08:56;;;;;;;0.32;0.32;;;;;;;;;;5139419;27;20499;-72
2024/01/14 10:11:22;;;;;;;0.50;0.50;;;;;;;;;;5154211;27;20051;-72
2024/01/14 10:13:49;;;;;;;0.20;0.20;;;5.80;99.90;;;;;;5153982;27;20047;-71
2024/01/14 10:16:15;;;;;;;5.82;0.73;;;5.90;99.90;;;;;;5135626;27;20493;-71
2024/01/14 10:18:41;;;;;;;0.25;0.25;;;5.80;99.90;;;;;;5154226;27;20118;-71
2024/01/14 10:21:07;;;;;;;0.77;0.50;;;5.90;99.90;;;;;;5153920;27;20130;-72
2024/01/14 10:23:32;;;;;;;3.10;1.55;;;6.30;99.90;;;;;;5134848;27;20065;-71
2024/01/14 10:26:02;;;;;;;1.55;1.13;;;6.50;99.90;;;;;;5153370;27;20145;-71
2024/01/14 10:28:45;;;;;;;2.28;0.65;;;6.10;99.90;;;;;;5135260;27;20057;-71
2024/01/14 10:31:11;;;;;;;0.25;0.25;;;6.10;99.90;;;;;;5153886;27;20419;-70
2024/01/14 10:33:37;;;;;;;1.00;1.00;;;6.10;99.90;;;;;;5135229;27;20081;-70
2024/01/14 10:36:09;;;;;;;0.90;0.82;;;;;;;;;;5153917;27;20047;-71
2024/01/14 10:38:35;;;;;;;0.20;0.20;;;5.80;99.90;;;;;;5153838;27;20541;-70
2024/01/14 10:41:01;;;;;;;0.20;0.20;;;6.00;99.90;;;;;;5135082;27;20133;-72
2024/01/14 10:43:28;;;;;;;0.43;0.43;;;5.90;99.90;;;;;;5134949;27;20134;-71
2024/01/14 10:45:55;;;;;;;0.30;0.30;;;5.80;99.90;;;;;;5153474;27;20058;-71
2024/01/14 10:48:28;;;;;;;0.20;0.20;;;5.70;99.90;;;;;;5153383;27;20046;-71
2024/01/14 10:50:56;;;;;;;0.30;0.30;;;;;;;;;;5134893;27;20038;-70
2024/01/14 10:53:27;;;;;;;0.20;0.20;;;6.40;99.90;;;;;;5133586;27;20059;-71
2024/01/14 10:56:03;;;;;;;0.30;0.30;;;5.90;99.90;;;;;;5130097;27;20058;-71
2024/01/14 10:58:36;;;;;;;2.53;0.88;;;6.10;99.90;;;;;;5118953;27;20097;-72
2024/01/14 11:01:07;;;;;;;0.20;0.20;;;;;;;;;;5153135;27;20038;-71
2024/01/14 11:03:33;;;;;;;0.20;0.20;;;6.00;99.00;;;;;;5131033;27;20057;-71
2024/01/14 11:05:59;;;;;;;0.20;0.20;;;6.20;99.50;;;;;;5152150;27;20038;-71
2024/01/14 11:08:26;;;;;;;1.95;0.98;;;5.80;98.30;;;;;;5138664;27;20055;-70
2024/01/14 11:10:53;;;;;;;0.20;0.20;;;6.50;95.10;;;;;;5138008;27;20085;-71
2024/01/14 11:13:31;;;;;;;0.10;0.10;;;6.40;96.80;;;;;;5132031;27;20046;-71
2024/01/14 11:16:14;;;;;;;0.30;0.30;;;6.10;99.90;;;;;;5130792;27;20035;-71
2024/01/14 11:18:52;;;;;;;0.40;0.40;;;6.30;93.10;;;;;;5148278;27;20046;-70
2024/01/14 11:21:46;;;;;;;0.20;0.20;;;6.60;99.90;;;;;;5152414;27;20577;-71
2024/01/14 11:24:11;;;;;;;2.67;0.60;;;6.40;99.90;;;;;;5118954;27;20396;-70
2024/01/14 11:26:38;;;;;;;0.73;0.73;;;6.60;99.90;;;;;;5130042;27;20042;-71
2024/01/14 11:29:03;;;;;;;;;;;6.60;92.20;;;;;;5152621;27;20050;-72
2024/01/14 11:32:04;;;;;;;0.20;0.20;;;6.50;88.80;;;;;;5134082;27;19925;-71
2024/01/14 11:34:50;;;;;;;0.28;0.28;;;6.90;93.50;;;;;;5134474;27;20132;-71
2024/01/14 11:37:38;;;;;;;0.20;0.20;;;6.90;92.10;;;;;;5152522;27;20086;-72
2024/01/14 11:40:06;;;;;;;0.40;0.40;;;6.80;91.90;;;;;;5128105;27;20055;-70
2024/01/14 11:42:34;;;;;;;0.40;0.40;;;6.70;91.20;;;;;;5133731;27;20126;-70
2024/01/14 11:45:03;;;;;;;0.55;0.45;;;7.00;90.80;;;;;;5152581;27;20084;-71
2024/01/14 11:47:43;;;;;;;0.10;0.10;;;6.90;86.60;;;;;;5152499;27;20054;-72
2024/01/14 11:50:10;;;;;;;0.10;0.10;;;7.00;78.70;;;;;;5121633;27;20130;-72
2024/01/14 11:52:46;;;;;;;0.40;0.35;;;6.80;73.70;;;;;;5122985;27;20574;-70
2024/01/14 11:55:14;;;;;;;0.30;0.30;;;7.00;77.00;;;;;;5111087;27;20050;-69
2024/01/14 11:57:40;;;;;;;0.20;0.20;;;7.30;74.40;;;;;;5132281;27;20055;-70
2024/01/14 12:00:07;;;;;;;0.28;0.28;;;7.30;68.80;;;;;;5120957;27;20038;-70
2024/01/14 12:02:34;;;;;;;3.83;0.43;;;7.30;61.60;;;;;;5150505;27;20050;-69
2024/01/14 12:05:18;;;;;;;0.22;0.22;;;7.30;51.80;;;;;;5134036;27;20051;-71
2024/01/14 12:07:44;;;;;;;0.20;0.20;;;7.40;55.00;;;;;;5144707;27;20047;-73
2024/01/14 12:10:14;;;;;;;0.20;0.20;;;6.90;38.40;;;;;;5144977;27;20038;-70
2024/01/14 12:12:41;;;;;;;1.45;0.90;;;7.10;35.00;;;;;;5151866;27;20068;-71
2024/01/14 12:15:08;;;;;;;0.20;0.20;;;7.40;31.00;;;;;;5133338;27;20451;-72
2024/01/14 12:17:34;;;;;;;0.20;0.20;;;7.60;37.70;;;;;;5135133;27;20081;-71
2024/01/14 12:20:00;;;;;;;0.20;0.20;;;7.20;27.50;;;;;;5115994;27;20079;-71
2024/01/14 12:22:25;;;;;;;0.20;0.20;;;7.40;31.30;;;;;;5130202;27;20043;-71
2024/01/14 12:24:51;;;;;;;0.20;0.20;;;7.00;22.60;;;;;;5123809;27;20054;-73
2024/01/14 12:27:17;;;;;;;0.20;0.20;;;7.30;28.90;;;;;;5145151;27;20038;-70
2024/01/14 12:29:43;;;;;;;0.32;0.32;;;7.20;19.40;;;;;;5156042;27;20065;-72
2024/01/14 12:32:12;;;;;;;0.20;0.20;;;7.20;24.00;;;;;;5137772;27;20117;-69
2024/01/14 12:34:40;;;;;;;0.28;0.28;;;7.30;23.10;;;;;;5156237;27;20344;-70
2024/01/14 12:37:06;;;;;;;3.85;3.28;;;7.30;15.80;;;;;;5137969;27;20046;-71
2024/01/14 12:39:32;;;;;;;7.22;0.73;;;7.40;21.00;;;;;;5138097;27;20494;-69
2024/01/14 12:41:59;;;;;;;0.20;0.20;;;7.70;18.00;;;;;;5155971;27;20043;-70
2024/01/14 12:44:26;;;;;;;0.20;0.20;;;7.40;19.60;;;;;;5137448;27;20474;-70
2024/01/14 12:47:04;;;;;;;0.40;0.40;;;8.50;12.20;;;;;;5137078;27;20062;-71
2024/01/14 12:49:31;;;;;;;0.10;0.10;;;7.10;5.10;;;;;;5156078;27;20050;-69
2024/01/14 12:52:06;;;;;;;;;;;5.90;13.80;;;;;;5156297;27;20046;-70
2024/01/14 12:54:32;;;;;;;0.20;0.20;;;6.10;30.40;;;;;;5137776;27;19967;-71
2024/01/14 12:57:05;;;;;;;0.30;0.30;;;5.70;39.00;;;;;;5156243;27;20042;-71
2024/01/14 12:59:32;;;;;;;0.20;0.20;;;6.00;52.80;;;;;;5120960;27;20486;-69
2024/01/14 13:01:59;;;;;;;0.50;0.50;;;6.20;60.10;;;;;;5156101;27;20042;-71
2024/01/14 13:04:27;;;;;;;0.20;0.20;;;5.70;62.90;;;;;;5155885;27;20398;-70
2024/01/14 13:06:53;;;;;;;0.20;0.20;;;7.20;70.90;;;;;;5155794;27;20047;-70
2024/01/14 13:09:20;;;;;;;0.20;0.20;;;6.00;82.10;;;;;;5123524;27;20047;-71
2024/01/14 13:11:49;;;;;;;13.50;0.40;;;6.70;73.30;;;;;;5155885;27;20432;-70
2024/01/14 13:14:15;;;;;;;0.75;0.60;;;6.10;69.70;;;;;;5137475;27;20408;-71